Time;durP1;ratioP1;P1;durP2;ratioP2;P2;SDS_P1;SDS_P2;PMS_P1;PMS_P2;Temp;Humidity;BMP_temperature;BMP_pressure;BME280_temperature;BME280_humidity;BME280_pressure;Samples;Min_cycle;Max_cycle;Signal;HPM_P1;HPM_P2
2024/03/01 00:07:24;;;;;;;64.60;31.20;;;;;;;6.74;100.00;99852.91;129412;1270;114771;-68
2024/03/01 00:10:26;;;;;;;78.90;37.10;;;;;;;6.69;100.00;99848.47;129079;1275;114760;-69
2024/03/01 00:13:28;;;;;;;76.30;36.60;;;;;;;6.68;100.00;99845.34;129092;1274;114780;-69
2024/03/01 00:16:30;;;;;;;69.70;35.10;;;;;;;6.66;100.00;99846.30;128998;1272;114766;-69
2024/03/01 00:19:32;;;;;;;63.30;34.40;;;;;;;6.62;100.00;99845.05;129040;1273;114792;-69
2024/03/01 00:22:33;;;;;;;64.10;34.00;;;;;;;6.59;100.00;99846.95;129070;1271;115162;-69
2024/03/01 00:25:35;;;;;;;64.10;32.00;;;;;;;6.57;100.00;99845.98;129073;1273;114810;-69
2024/03/01 00:28:37;;;;;;;63.60;32.00;;;;;;;6.52;100.00;99843.48;129087;1273;114888;-69
2024/03/01 00:31:39;;;;;;;67.30;34.60;;;;;;;6.48;100.00;99838.86;129088;1288;114762;-68
2024/03/01 00:34:41;;;;;;;74.10;37.90;;;;;;;6.45;100.00;99838.98;129026;1274;114832;-69
2024/03/01 00:37:43;;;;;;;68.40;33.10;;;;;;;6.43;100.00;99838.88;129023;1273;114828;-70
2024/03/01 00:40:44;;;;;;;68.10;34.70;;;;;;;6.42;100.00;99840.00;129076;1273;114827;-69
2024/03/01 00:43:46;;;;;;;75.10;39.70;;;;;;;6.40;100.00;99838.83;128566;1280;127624;-69
2024/03/01 00:46:48;;;;;;;47.80;26.00;;;;;;;6.40;100.00;99834.56;128970;1287;114811;-69
2024/03/01 00:49:50;;;;;;;76.00;37.60;;;;;;;6.40;100.00;99829.27;129036;1273;114840;-69
2024/03/01 00:52:52;;;;;;;60.20;32.40;;;;;;;6.39;100.00;99823.25;128946;1272;114739;-69
2024/03/01 00:55:54;;;;;;;69.50;33.20;;;;;;;6.39;100.00;99822.52;128973;1274;114751;-69
2024/03/01 00:58:56;;;;;;;49.30;25.30;;;;;;;6.40;100.00;99820.20;129025;1270;114763;-69
2024/03/01 01:01:57;;;;;;;70.30;37.40;;;;;;;6.40;100.00;99818.95;128988;1275;114816;-69
2024/03/01 01:04:59;;;;;;;65.60;35.60;;;;;;;6.40;100.00;99814.52;128955;1293;114825;-68
2024/03/01 01:08:01;;;;;;;58.70;30.40;;;;;;;6.42;100.00;99810.20;129057;1270;114870;-69
2024/03/01 01:11:03;;;;;;;56.20;27.30;;;;;;;6.43;100.00;99802.89;129029;1293;114764;-68
2024/03/01 01:14:04;;;;;;;70.40;37.30;;;;;;;6.46;100.00;99798.13;129038;1274;114755;-69
2024/03/01 01:17:06;;;;;;;72.00;36.50;;;;;;;6.50;100.00;99792.84;129030;1275;114835;-69
2024/03/01 01:20:08;;;;;;;76.80;40.50;;;;;;;6.51;100.00;99787.64;129001;1274;115456;-69
2024/03/01 01:23:10;;;;;;;70.30;34.40;;;;;;;6.53;100.00;99784.01;129049;1275;114860;-69
2024/03/01 01:26:12;;;;;;;79.80;38.10;;;;;;;6.56;100.00;99781.95;129054;1286;114879;-69
2024/03/01 01:29:14;;;;;;;71.40;38.50;;;;;;;6.58;100.00;99784.89;128991;1274;128726;-69
2024/03/01 01:32:16;;;;;;;79.20;39.90;;;;;;;6.60;100.00;99782.18;128998;1274;114815;-71
2024/03/01 01:35:18;;;;;;;45.90;22.60;;;;;;;6.60;100.00;99775.41;129032;1293;114812;-69
2024/03/01 01:38:20;;;;;;;66.20;35.80;;;;;;;6.60;100.00;99767.05;128933;1271;114805;-70
2024/03/01 01:41:22;;;;;;;40.70;19.50;;;;;;;6.61;100.00;99759.77;128940;1274;114800;-68
2024/03/01 01:44:24;;;;;;;72.20;37.30;;;;;;;6.61;100.00;99754.41;128996;1293;114780;-70
2024/03/01 01:47:27;;;;;;;70.00;37.60;;;;;;;6.61;100.00;99752.12;128941;1286;114757;-69
2024/03/01 01:50:30;;;;;;;72.80;37.80;;;;;;;6.61;100.00;99751.58;128918;1275;114796;-70
2024/03/01 01:53:32;;;;;;;54.20;28.90;;;;;;;6.61;100.00;99751.06;128799;1276;114827;-70
2024/03/01 01:56:34;;;;;;;59.00;29.90;;;;;;;6.60;100.00;99749.12;128824;1293;114824;-69
2024/03/01 01:59:37;;;;;;;39.50;19.50;;;;;;;6.60;100.00;99750.77;128967;1293;115482;-69
2024/03/01 02:02:40;;;;;;;69.90;35.40;;;;;;;6.59;100.00;99742.96;128919;1274;114892;-69
2024/03/01 02:05:43;;;;;;;74.00;37.10;;;;;;;6.59;100.00;99742.42;128984;1274;114787;-69
2024/03/01 02:08:45;;;;;;;52.10;27.90;;;;;;;6.60;100.00;99739.91;128850;1274;114783;-70
2024/03/01 02:11:47;;;;;;;74.00;39.10;;;;;;;6.60;100.00;99738.66;128940;1275;114870;-70
2024/03/01 02:14:48;;;;;;;80.00;39.40;;;;;;;6.61;100.00;99731.71;128938;1293;114803;-69
2024/03/01 02:17:50;;;;;;;55.10;31.10;;;;;;;6.61;100.00;99731.35;128919;1274;114779;-69
2024/03/01 02:21:12;;;;;;;59.20;31.30;;;;;;;6.62;100.00;99722.27;129020;1274;115413;-69
2024/03/01 02:24:14;;;;;;;79.00;41.20;;;;;;;6.61;100.00;99716.44;128884;1271;115193;-69
2024/03/01 02:27:16;;;;;;;55.20;27.10;;;;;;;6.61;100.00;99711.66;128878;1293;114846;-70
2024/03/01 02:30:18;;;;;;;74.90;42.20;;;;;;;6.61;100.00;99706.13;128897;1293;114842;-70
2024/03/01 02:33:20;;;;;;;63.50;33.80;;;;;;;6.61;100.00;99700.48;128475;1282;127852;-69
2024/03/01 02:36:22;;;;;;;74.20;37.70;;;;;;;6.61;100.00;99698.88;128778;1272;114939;-70
2024/03/01 02:39:25;;;;;;;76.10;38.50;;;;;;;6.60;100.00;99691.80;128949;1270;114686;-71
2024/03/01 02:42:27;;;;;;;70.80;35.30;;;;;;;6.61;100.00;99687.36;128981;1293;114741;-70
2024/03/01 02:45:29;;;;;;;70.90;36.80;;;;;;;6.61;100.00;99681.67;129029;1293;114869;-69
2024/03/01 02:48:31;;;;;;;77.20;37.00;;;;;;;6.61;100.00;99679.39;128971;1293;115390;-70
2024/03/01 02:51:33;;;;;;;66.50;32.30;;;;;;;6.62;100.00;99675.79;129045;1293;114768;-70
2024/03/01 02:54:34;;;;;;;69.60;38.20;;;;;;;6.62;100.00;99670.42;129794;1262;114779;-71
2024/03/01 02:57:36;;;;;;;71.10;36.70;;;;;;;6.63;100.00;99668.98;129916;1262;114902;-70
2024/03/01 03:00:38;;;;;;;68.80;34.20;;;;;;;6.62;100.00;99666.17;129810;1259;114787;-70
2024/03/01 03:03:40;;;;;;;44.80;24.70;;;;;;;6.63;100.00;99660.13;130014;1281;114725;-69
2024/03/01 03:06:42;;;;;;;65.50;35.60;;;;;;;6.61;100.00;99659.66;129895;1281;114862;-70
2024/03/01 03:09:44;;;;;;;69.50;34.60;;;;;;;6.60;100.00;99663.25;129758;1281;114814;-70
2024/03/01 03:12:47;;;;;;;72.60;36.00;;;;;;;6.60;100.00;99658.83;129959;1281;114734;-70
2024/03/01 03:15:49;;;;;;;72.70;36.20;;;;;;;6.59;100.00;99655.49;129805;1262;114772;-70
2024/03/01 03:18:51;;;;;;;70.20;37.20;;;;;;;6.58;100.00;99655.73;130053;1281;114734;-70
2024/03/01 03:21:53;;;;;;;72.10;36.60;;;;;;;6.57;100.00;99656.83;129734;1262;114754;-70
2024/03/01 03:24:55;;;;;;;71.80;35.30;;;;;;;6.56;100.00;99652.78;129934;1272;114764;-70
2024/03/01 03:27:57;;;;;;;67.60;35.20;;;;;;;6.56;100.00;99646.77;130105;1262;114843;-69
2024/03/01 03:30:58;;;;;;;64.30;34.40;;;;;;;6.56;100.00;99648.53;129740;1259;115192;-70
2024/03/01 03:34:00;;;;;;;46.10;24.50;;;;;;;6.56;100.00;99645.67;129727;1262;114817;-70
2024/03/01 03:37:02;;;;;;;73.90;37.40;;;;;;;6.57;100.00;99645.14;129818;1262;114734;-70
2024/03/01 03:40:14;;;;;;;75.90;39.50;;;;;;;6.57;100.00;99645.80;129670;1263;129230;-70
2024/03/01 03:43:16;;;;;;;69.60;35.20;;;;;;;6.59;100.00;99649.10;129691;1262;115317;-70
2024/03/01 03:46:18;;;;;;;58.40;31.20;;;;;;;6.60;100.00;99650.13;129719;1262;114751;-70
2024/03/01 03:49:20;;;;;;;73.10;37.10;;;;;;;6.62;100.00;99656.45;129810;1281;114768;-70
2024/03/01 03:52:22;;;;;;;59.10;34.20;;;;;;;6.63;100.00;99649.09;129728;1281;114741;-68
2024/03/01 03:55:24;;;;;;;69.60;37.70;;;;;;;6.64;100.00;99647.46;129726;1281;115070;-70
2024/03/01 03:58:26;;;;;;;63.00;32.60;;;;;;;6.64;100.00;99646.75;129969;1262;114847;-70
2024/03/01 04:01:28;;;;;;;70.10;38.30;;;;;;;6.66;100.00;99644.38;129702;1281;128604;-69
2024/03/01 04:04:29;;;;;;;69.70;36.20;;;;;;;6.67;100.00;99645.21;129714;1260;114726;-69
2024/03/01 04:07:32;;;;;;;61.80;30.60;;;;;;;6.68;100.00;99647.13;129767;1262;114818;-70
2024/03/01 04:10:34;;;;;;;64.40;33.10;;;;;;;6.68;100.00;99648.90;129534;1265;115218;-68
2024/03/01 04:13:37;;;;;;;71.20;37.50;;;;;;;6.68;100.00;99645.86;129730;1281;114754;-69
2024/03/01 04:16:38;;;;;;;68.40;35.40;;;;;;;6.68;100.00;99648.16;129831;1281;114825;-69
2024/03/01 04:19:40;;;;;;;79.70;40.70;;;;;;;6.67;100.00;99643.94;129811;1281;114742;-69
2024/03/01 04:22:42;;;;;;;67.00;33.60;;;;;;;6.67;100.00;99642.55;129668;1262;129481;-69
2024/03/01 04:25:44;;;;;;;68.60;34.70;;;;;;;6.66;100.00;99643.14;129652;1262;115509;-69
2024/03/01 04:28:46;;;;;;;46.20;23.00;;;;;;;6.63;100.00;99648.41;129794;1281;114793;-68
2024/03/01 04:31:51;;;;;;;75.90;36.20;;;;;;;6.60;100.00;99651.89;129726;1270;114771;-68
2024/03/01 04:34:54;;;;;;;75.20;41.40;;;;;;;6.58;100.00;99648.29;129850;1263;114815;-69
2024/03/01 04:37:56;;;;;;;68.60;36.00;;;;;;;6.56;100.00;99645.67;129710;1281;114904;-68
2024/03/01 04:40:58;;;;;;;68.60;35.30;;;;;;;6.56;100.00;99645.89;129678;1281;114740;-69
2024/03/01 04:44:00;;;;;;;64.70;35.60;;;;;;;6.56;100.00;99645.70;130036;1258;114796;-69
2024/03/01 04:47:01;;;;;;;73.50;37.70;;;;;;;6.56;100.00;99644.44;129828;1281;114808;-69
2024/03/01 04:50:05;;;;;;;68.90;37.40;;;;;;;6.56;100.00;99646.58;129783;1262;114836;-69
2024/03/01 04:53:08;;;;;;;70.60;35.60;;;;;;;6.55;100.00;99651.56;129815;1281;114751;-69
2024/03/01 04:56:10;;;;;;;71.40;36.70;;;;;;;6.53;100.00;99642.98;129703;1263;114770;-72
2024/03/01 04:59:12;;;;;;;61.30;33.90;;;;;;;6.52;100.00;99644.83;129806;1259;114747;-69
2024/03/01 05:02:14;;;;;;;65.30;35.50;;;;;;;6.50;100.00;99641.14;129783;1259;129212;-69
2024/03/01 05:05:18;;;;;;;81.50;40.80;;;;;;;6.50;100.00;99642.77;129733;1259;114740;-69
2024/03/01 05:08:20;;;;;;;73.40;38.70;;;;;;;6.50;100.00;99641.52;129929;1281;114755;-69
2024/03/01 05:11:22;;;;;;;73.40;37.70;;;;;;;6.48;100.00;99650.27;129939;1262;114824;-70
2024/03/01 05:14:24;;;;;;;65.60;32.70;;;;;;;6.48;100.00;99651.17;129788;1281;114720;-68
2024/03/01 05:17:26;;;;;;;64.10;31.90;;;;;;;6.49;100.00;99656.11;129734;1262;114714;-68
2024/03/01 05:20:29;;;;;;;64.20;30.70;;;;;;;6.49;100.00;99662.83;129697;1262;114756;-68
2024/03/01 05:23:31;;;;;;;45.90;23.90;;;;;;;6.51;100.00;99661.17;129700;1275;115349;-68
2024/03/01 05:26:33;;;;;;;55.50;27.90;;;;;;;6.51;100.00;99662.57;129793;1262;115232;-68
2024/03/01 05:29:36;;;;;;;78.40;39.80;;;;;;;6.53;100.00;99663.56;129792;1262;114822;-68
2024/03/01 05:32:43;;;;;;;44.50;23.40;;;;;;;6.55;100.00;99664.73;129607;1262;114822;-69
2024/03/01 05:35:45;;;;;;;77.40;37.00;;;;;;;6.57;100.00;99668.56;129861;1262;115411;-69
2024/03/01 05:38:47;;;;;;;74.00;38.90;;;;;;;6.57;100.00;99668.17;129853;1274;115236;-70
2024/03/01 05:41:49;;;;;;;67.80;33.50;;;;;;;6.57;100.00;99671.54;129847;1262;114838;-69
2024/03/01 05:44:51;;;;;;;66.70;36.20;;;;;;;6.58;100.00;99672.23;129825;1260;114688;-69
2024/03/01 05:47:55;;;;;;;68.80;34.80;;;;;;;6.59;100.00;99669.88;129775;1281;114853;-69
2024/03/01 05:50:58;;;;;;;75.10;37.80;;;;;;;6.59;100.00;99667.56;129811;1262;114784;-69
2024/03/01 05:54:00;;;;;;;73.00;36.90;;;;;;;6.59;100.00;99674.82;129916;1278;114847;-69
2024/03/01 05:57:03;;;;;;;74.40;37.00;;;;;;;6.60;100.00;99675.86;129754;1278;114783;-68
2024/03/01 06:00:18;;;;;;;68.80;37.60;;;;;;;6.61;100.00;99671.37;129863;1262;114828;-69
2024/03/01 06:03:21;;;;;;;53.40;28.60;;;;;;;6.62;100.00;99668.84;129811;1281;114749;-68
2024/03/01 06:06:23;;;;;;;72.20;35.80;;;;;;;6.64;100.00;99668.77;129845;1261;114885;-70
2024/03/01 06:09:24;;;;;;;45.10;22.50;;;;;;;6.65;100.00;99671.56;129827;1266;114764;-70
2024/03/01 06:12:26;;;;;;;69.00;38.90;;;;;;;6.65;100.00;99676.36;129873;1259;114756;-70
2024/03/01 06:15:28;;;;;;;71.80;37.30;;;;;;;6.65;100.00;99677.23;129763;1281;115172;-69
2024/03/01 06:18:30;;;;;;;79.10;41.40;;;;;;;6.68;100.00;99679.96;129875;1259;137809;-68
2024/03/01 06:21:32;;;;;;;75.80;39.00;;;;;;;6.70;100.00;99683.73;129758;1281;128035;-69
2024/03/01 06:24:34;;;;;;;65.40;33.20;;;;;;;6.74;100.00;99685.02;129740;1281;114776;-68
2024/03/01 06:27:37;;;;;;;74.70;36.20;;;;;;;6.77;100.00;99684.52;129858;1272;114856;-69
2024/03/01 06:30:39;;;;;;;62.80;34.10;;;;;;;6.80;100.00;99680.15;129527;1262;114862;-70
2024/03/01 06:33:41;;;;;;;75.30;37.50;;;;;;;6.82;100.00;99682.88;129695;1262;115126;-69
2024/03/01 06:36:43;;;;;;;63.40;36.20;;;;;;;6.83;100.00;99676.27;129833;1262;114721;-69
2024/03/01 06:39:45;;;;;;;65.10;35.80;;;;;;;6.84;100.00;99684.55;129686;1262;114769;-69
2024/03/01 06:42:47;;;;;;;75.80;39.40;;;;;;;6.85;100.00;99684.54;129775;1260;115241;-69
2024/03/01 06:45:48;;;;;;;72.00;39.70;;;;;;;6.86;100.00;99686.25;129798;1259;114848;-69
2024/03/01 06:48:51;;;;;;;78.00;39.50;;;;;;;6.87;100.00;99688.34;129815;1281;114731;-69
2024/03/01 06:51:53;;;;;;;79.80;41.00;;;;;;;6.89;100.00;99686.30;129767;1262;114855;-69
2024/03/01 06:54:55;;;;;;;76.70;40.40;;;;;;;6.91;100.00;99681.44;129886;1281;114768;-68
2024/03/01 06:57:57;;;;;;;73.90;39.40;;;;;;;6.92;100.00;99686.56;129694;1262;114786;-69
2024/03/01 07:01:04;;;;;;;70.50;37.10;;;;;;;6.91;100.00;99689.58;129811;1262;114789;-69
2024/03/01 07:04:06;;;;;;;49.70;24.80;;;;;;;6.90;100.00;99684.11;129823;1262;128949;-69
2024/03/01 07:07:08;;;;;;;62.00;33.70;;;;;;;6.92;100.00;99686.02;129776;1262;114788;-71
2024/03/01 07:10:10;;;;;;;55.70;31.40;;;;;;;6.94;100.00;99680.09;129854;1281;115292;-69
2024/03/01 07:13:12;;;;;;;73.20;38.30;;;;;;;6.97;100.00;99679.04;129795;1281;114782;-69
2024/03/01 07:16:14;;;;;;;74.40;36.50;;;;;;;7.02;100.00;99678.98;129807;1262;115142;-69
2024/03/01 07:19:17;;;;;;;54.10;28.80;;;;;;;7.07;100.00;99679.11;129851;1259;115445;-70
2024/03/01 07:22:19;;;;;;;46.70;25.60;;;;;;;7.12;100.00;99669.83;129506;1268;114971;-70
2024/03/01 07:25:21;;;;;;;71.80;37.80;;;;;;;7.19;100.00;99664.58;129824;1281;114760;-69
2024/03/01 07:28:23;;;;;;;61.40;33.70;;;;;;;7.24;100.00;99659.55;129863;1281;114786;-70
2024/03/01 07:31:25;;;;;;;75.90;36.70;;;;;;;7.31;100.00;99657.05;129755;1281;114688;-70
2024/03/01 07:34:26;;;;;;;65.50;34.30;;;;;;;7.41;100.00;99659.30;129731;1281;114770;-69
2024/03/01 07:37:29;;;;;;;66.80;35.30;;;;;;;7.53;100.00;99654.80;129794;1259;114745;-70
2024/03/01 07:40:31;;;;;;;56.20;30.00;;;;;;;7.64;100.00;99653.73;129554;1259;116463;-70
2024/03/01 07:43:33;;;;;;;69.20;37.10;;;;;;;7.75;100.00;99652.14;129739;1278;114782;-71
2024/03/01 07:46:37;;;;;;;64.20;34.40;;;;;;;7.88;100.00;99653.50;129787;1262;114814;-70
2024/03/01 07:49:39;;;;;;;67.10;35.30;;;;;;;7.97;100.00;99643.47;129796;1262;128754;-70
2024/03/01 07:52:41;;;;;;;65.50;35.00;;;;;;;8.09;100.00;99646.39;129663;1265;115246;-70
2024/03/01 07:55:43;;;;;;;67.20;36.00;;;;;;;8.19;100.00;99647.01;129837;1262;114762;-70
2024/03/01 07:58:46;;;;;;;65.30;36.90;;;;;;;8.28;100.00;99641.55;129766;1262;114751;-70
2024/03/01 08:01:48;;;;;;;66.00;36.80;;;;;;;8.38;100.00;99644.25;129680;1278;115434;-69
2024/03/01 08:04:50;;;;;;;53.90;31.30;;;;;;;8.49;100.00;99641.73;129779;1281;114726;-70
2024/03/01 08:07:52;;;;;;;55.40;32.70;;;;;;;8.59;100.00;99640.57;129845;1281;114721;-70
2024/03/01 08:10:53;;;;;;;50.00;28.20;;;;;;;8.67;100.00;99643.33;129832;1261;128964;-70
2024/03/01 08:13:56;;;;;;;57.60;34.10;;;;;;;8.78;100.00;99637.75;129816;1262;114852;-70
2024/03/01 08:16:58;;;;;;;55.70;31.20;;;;;;;8.90;100.00;99636.41;129930;1262;114872;-71
2024/03/01 08:20:03;;;;;;;58.90;33.20;;;;;;;8.98;100.00;99633.51;129845;1281;114842;-70
2024/03/01 08:23:05;;;;;;;52.30;31.50;;;;;;;9.10;100.00;99629.33;129814;1274;114820;-71
2024/03/01 08:26:14;;;;;;;57.40;32.30;;;;;;;9.21;100.00;99628.02;129798;1281;115116;-71
2024/03/01 08:29:18;;;;;;;45.50;23.90;;;;;;;9.31;100.00;99628.89;129746;1273;128106;-70
2024/03/01 08:32:39;;;;;;;52.10;32.50;;;;;;;9.40;100.00;99621.98;129745;1266;114662;-71
2024/03/01 08:35:41;;;;;;;56.00;31.40;;;;;;;9.50;100.00;99623.55;129932;1259;114748;-71
2024/03/01 08:38:43;;;;;;;57.90;34.60;;;;;;;9.56;99.98;99619.50;129977;1278;115519;-71
2024/03/01 08:41:47;;;;;;;51.00;27.70;;;;;;;9.67;99.95;99620.45;129960;1262;114738;-70
2024/03/01 08:44:58;;;;;;;51.90;32.60;;;;;;;9.75;99.74;99624.48;129786;1262;114761;-71
2024/03/01 08:48:10;;;;;;;51.60;29.60;;;;;;;9.83;99.45;99619.20;129714;1264;128931;-71
2024/03/01 08:51:12;;;;;;;54.50;31.40;;;;;;;9.95;99.71;99616.19;129778;1274;114685;-71
2024/03/01 08:54:15;;;;;;;54.00;30.60;;;;;;;10.05;99.67;99615.42;129855;1259;114747;-71
2024/03/01 08:57:25;;;;;;;45.00;24.60;;;;;;;10.16;99.20;99607.81;129821;1262;114812;-71
2024/03/01 09:00:39;;;;;;;53.80;30.50;;;;;;;10.29;98.95;99601.92;129911;1262;114802;-71
2024/03/01 09:03:41;;;;;;;50.40;29.00;;;;;;;10.45;99.24;99605.30;129704;1262;128146;-71
2024/03/01 09:06:43;;;;;;;52.70;28.40;;;;;;;10.58;98.51;99604.09;129697;1260;114810;-71
2024/03/01 09:09:44;;;;;;;50.00;29.00;;;;;;;10.68;98.33;99605.87;129746;1265;114785;-72
2024/03/01 09:12:46;;;;;;;50.20;29.80;;;;;;;10.77;97.50;99599.21;129808;1262;114787;-72
2024/03/01 09:15:48;;;;;;;45.40;25.70;;;;;;;10.83;97.51;99596.56;129887;1262;116367;-73
2024/03/01 09:18:51;;;;;;;48.80;30.00;;;;;;;10.91;97.37;99594.80;129888;1262;115651;-74
2024/03/01 09:21:53;;;;;;;43.90;26.80;;;;;;;11.00;96.96;99599.94;129903;1260;114822;-74
2024/03/01 09:24:55;;;;;;;42.60;25.00;;;;;;;11.10;96.56;99596.30;129814;1259;114743;-71
2024/03/01 09:27:58;;;;;;;45.40;26.10;;;;;;;11.17;96.44;99597.25;129911;1260;115537;-71
2024/03/01 09:31:00;;;;;;;45.80;26.50;;;;;;;11.23;96.05;99598.71;129746;1262;114752;-69
2024/03/01 09:34:06;;;;;;;46.90;25.50;;;;;;;11.29;96.07;99597.96;129712;1262;114820;-71
2024/03/01 09:37:13;;;;;;;46.90;26.70;;;;;;;11.40;96.10;99604.59;129920;1262;114820;-70
2024/03/01 09:40:33;;;;;;;41.00;27.40;;;;;;;11.54;96.36;99604.60;130086;1262;114735;-71
2024/03/01 09:43:55;;;;;;;38.50;23.40;;;;;;;11.67;95.68;99608.02;129555;1281;127376;-70
2024/03/01 09:47:16;;;;;;;39.50;23.60;;;;;;;11.79;95.58;99608.89;129515;1267;114733;-70
2024/03/01 09:50:33;;;;;;;41.30;24.50;;;;;;;11.88;95.18;99610.94;129818;1271;114741;-71
2024/03/01 09:53:57;;;;;;;42.30;25.20;;;;;;;12.04;95.05;99609.79;129751;1262;114853;-71
2024/03/01 09:57:28;;;;;;;48.90;29.30;;;;;;;12.16;94.75;99609.30;129741;1262;114714;-71
2024/03/01 10:00:33;;;;;;;42.30;23.90;;;;;;;12.34;94.76;99606.12;129670;1278;128789;-71
2024/03/01 10:04:16;;;;;;;38.20;23.00;;;;;;;12.46;93.90;99604.44;129719;1273;114747;-71
2024/03/01 10:08:00;;;;;;;41.10;26.40;;;;;;;12.56;93.43;99603.77;129730;1281;114802;-71
2024/03/01 10:11:29;;;;;;;42.90;28.20;;;;;;;12.68;92.62;99600.43;129573;1268;114895;-71
2024/03/01 10:14:37;;;;;;;43.50;24.80;;;;;;;12.74;91.61;99603.08;129738;1282;114735;-71
2024/03/01 10:17:50;;;;;;;39.30;25.70;;;;;;;12.77;91.36;99602.33;129747;1262;128321;-71
2024/03/01 10:21:21;;;;;;;38.50;24.00;;;;;;;12.81;90.94;99606.36;129428;1264;114748;-71
2024/03/01 10:24:38;;;;;;;31.20;19.70;;;;;;;12.86;91.08;99611.33;129752;1273;114733;-71
2024/03/01 10:27:51;;;;;;;38.40;22.60;;;;;;;12.90;89.93;99609.84;129553;1259;115139;-71
2024/03/01 10:30:59;;;;;;;38.80;25.20;;;;;;;12.86;89.00;99611.16;129717;1278;114796;-72
2024/03/01 10:34:06;;;;;;;37.30;23.90;;;;;;;12.87;89.25;99613.63;129756;1278;128992;-71
2024/03/01 10:37:32;;;;;;;38.30;23.50;;;;;;;12.93;88.85;99615.38;129769;1281;114784;-71
2024/03/01 10:40:58;;;;;;;42.80;25.00;;;;;;;12.91;87.50;99616.02;129793;1260;114799;-71
2024/03/01 10:44:29;;;;;;;40.80;23.80;;;;;;;12.87;87.36;99607.70;129754;1266;114752;-72
2024/03/01 10:47:32;;;;;;;34.40;23.50;;;;;;;12.86;88.06;99608.48;129918;1281;114941;-72
2024/03/01 10:50:36;;;;;;;38.70;23.90;;;;;;;12.93;88.24;99610.30;129845;1272;114814;-71
2024/03/01 10:53:43;;;;;;;37.90;22.40;;;;;;;13.02;88.04;99613.82;129882;1281;115179;-71
2024/03/01 10:56:47;;;;;;;39.60;23.50;;;;;;;13.12;88.16;99610.59;129895;1281;115442;-72
2024/03/01 11:00:06;;;;;;;36.70;24.20;;;;;;;13.20;87.74;99600.03;129748;1259;114702;-71
2024/03/01 11:03:19;;;;;;;40.00;23.60;;;;;;;13.29;87.74;99599.71;129750;1262;114855;-71
2024/03/01 11:06:45;;;;;;;37.10;24.10;;;;;;;13.39;86.95;99594.73;129747;1262;129177;-72
2024/03/01 11:09:59;;;;;;;36.40;22.00;;;;;;;13.47;86.76;99590.04;129571;1260;114928;-71
2024/03/01 11:13:12;;;;;;;37.10;24.20;;;;;;;13.55;86.76;99586.21;129803;1264;114852;-71
2024/03/01 11:16:16;;;;;;;31.60;21.00;;;;;;;13.69;86.12;99588.08;129801;1261;115281;-71
2024/03/01 11:19:23;;;;;;;37.40;23.10;;;;;;;13.73;85.73;99589.02;129840;1271;114730;-71
2024/03/01 11:22:26;;;;;;;50.90;31.00;;;;;;;13.85;86.32;99582.21;129795;1265;129093;-71
2024/03/01 11:25:48;;;;;;;36.40;22.30;;;;;;;14.01;86.25;99568.62;129710;1261;114803;-71
2024/03/01 11:28:56;;;;;;;34.10;21.60;;;;;;;14.14;85.23;99569.30;129779;1264;114835;-71
2024/03/01 11:32:23;;;;;;;39.80;24.20;;;;;;;14.19;84.78;99569.39;129732;1264;115091;-71
2024/03/01 11:35:35;;;;;;;34.60;21.90;;;;;;;14.21;83.94;99563.04;129953;1273;114855;-71
2024/03/01 11:38:56;;;;;;;36.90;23.90;;;;;;;14.19;83.77;99558.32;129706;1275;128104;-71
2024/03/01 11:42:04;;;;;;;37.60;25.10;;;;;;;14.18;83.81;99563.20;129746;1263;114777;-72
2024/03/01 11:45:18;;;;;;;36.40;23.30;;;;;;;14.21;83.94;99561.17;129766;1272;114719;-74
2024/03/01 11:48:40;;;;;;;39.10;24.60;;;;;;;14.24;83.84;99550.41;129748;1264;114848;-72
2024/03/01 11:52:20;;;;;;;35.60;22.30;;;;;;;14.33;84.23;99548.44;129480;1261;115084;-73
2024/03/01 11:55:43;;;;;;;36.70;22.30;;;;;;;14.46;83.65;99544.94;129256;1271;128573;-71
2024/03/01 11:59:38;;;;;;;34.80;21.30;;;;;;;14.60;83.66;99546.18;129358;1279;115265;-72
2024/03/01 12:03:02;;;;;;;32.50;20.00;;;;;;;14.73;82.39;99541.93;128660;1276;114778;-74
2024/03/01 12:06:33;;;;;;;31.00;18.40;;;;;;;14.81;82.06;99543.86;128624;1284;115449;-71
2024/03/01 12:10:23;;;;;;;29.20;19.30;;;;;;;14.88;81.32;99538.43;128770;1275;114871;-71
2024/03/01 12:13:29;;;;;;;29.40;18.00;;;;;;;14.97;80.93;99532.11;127984;1282;128818;-72
2024/03/01 12:16:51;;;;;;;22.90;16.00;;;;;;;15.02;79.93;99526.30;128006;1283;114798;-73
2024/03/01 12:19:58;;;;;;;25.00;16.20;;;;;;;15.04;79.50;99521.16;128104;1282;114935;-74
2024/03/01 12:23:12;;;;;;;24.00;14.50;;;;;;;15.13;80.06;99511.98;128079;1282;114909;-71
2024/03/01 12:26:16;;;;;;;24.10;15.00;;;;;;;15.22;79.41;99503.36;127968;1290;114916;-73
2024/03/01 12:29:55;;;;;;;23.40;14.70;;;;;;;15.29;78.42;99510.37;127992;1290;129079;-72
2024/03/01 12:33:06;;;;;;;19.60;12.90;;;;;;;15.29;77.74;99505.59;127695;1300;114987;-74
2024/03/01 12:36:20;;;;;;;34.40;16.70;;;;;;;15.29;77.21;99503.46;128001;1282;114953;-72
2024/03/01 12:39:24;;;;;;;30.20;14.90;;;;;;;15.30;77.38;99505.95;128460;1276;114840;-72
2024/03/01 12:42:57;;;;;;;23.10;14.10;;;;;;;15.32;75.71;99510.98;128810;1276;114944;-72
2024/03/01 12:46:10;;;;;;;24.00;16.20;;;;;;;15.23;75.30;99507.71;128584;1277;127628;-72
2024/03/01 12:49:22;;;;;;;25.10;15.60;;;;;;;15.18;75.50;99505.24;128812;1287;115503;-71
2024/03/01 12:52:56;;;;;;;27.20;15.70;;;;;;;15.20;76.00;99505.80;129142;1272;114897;-72
2024/03/01 12:56:20;;;;;;;26.90;15.80;;;;;;;15.27;76.01;99506.90;129355;1269;114865;-71
2024/03/01 12:59:28;;;;;;;24.70;15.00;;;;;;;15.36;76.29;99508.64;129261;1285;114954;-71
2024/03/01 13:03:18;;;;;;;20.00;12.50;;;;;;;15.42;75.73;99504.94;129311;1287;129814;-72
2024/03/01 13:06:22;;;;;;;20.70;14.60;;;;;;;15.48;76.00;99506.73;129267;1287;114789;-71
2024/03/01 13:09:30;;;;;;;24.00;14.90;;;;;;;15.54;76.32;99503.05;129429;1273;115510;-72
2024/03/01 13:12:34;;;;;;;19.90;12.80;;;;;;;15.59;76.02;99496.86;129599;1267;114838;-72
2024/03/01 13:15:46;;;;;;;17.30;10.00;;;;;;;15.61;75.88;99498.91;129707;1282;114758;-72
2024/03/01 13:18:50;;;;;;;14.50;8.20;;;;;;;15.64;75.16;99496.27;129685;1272;128067;-71
2024/03/01 13:21:57;;;;;;;;;;;;;;;15.65;73.36;99490.77;129675;1261;114788;-71
2024/03/01 13:25:15;;;;;;;12.40;8.00;;;;;;;15.62;73.83;99492.46;129832;1264;116271;-73
2024/03/01 13:28:23;;;;;;;16.40;11.90;;;;;;;15.66;73.48;99493.96;129691;1282;114781;-72
2024/03/01 13:31:30;;;;;;;21.80;10.50;;;;;;;15.70;73.27;99495.45;129748;1265;114746;-71
2024/03/01 13:34:34;;;;;;;16.60;10.60;;;;;;;15.74;72.66;99490.59;129672;1281;128966;-72
2024/03/01 13:38:01;;;;;;;16.40;10.20;;;;;;;15.79;73.01;99489.98;129825;1263;114860;-71
2024/03/01 13:41:11;;;;;;;16.90;11.20;;;;;;;15.86;72.85;99484.56;129618;1273;115400;-72
2024/03/01 13:44:37;;;;;;;18.00;11.40;;;;;;;15.91;72.61;99485.22;129658;1266;114920;-71
2024/03/01 13:47:51;;;;;;;17.30;11.90;;;;;;;15.96;72.67;99486.77;129828;1264;114716;-70
2024/03/01 13:50:53;;;;;;;16.70;10.70;;;;;;;15.99;72.79;99482.55;129789;1263;128695;-69
2024/03/01 13:53:54;;;;;;;14.00;9.40;;;;;;;16.03;72.30;99475.77;129735;1265;114751;-70
2024/03/01 13:56:57;;;;;;;15.10;9.90;;;;;;;16.05;71.81;99474.16;129753;1266;114843;-71
2024/03/01 14:00:00;;;;;;;16.50;9.90;;;;;;;16.06;71.38;99478.38;129689;1264;114747;-69
2024/03/01 14:03:05;;;;;;;15.90;9.50;;;;;;;16.06;71.39;99482.19;129755;1261;114840;-71
2024/03/01 14:06:08;;;;;;;16.20;9.90;;;;;;;16.05;71.40;99480.60;129874;1260;114786;-70